sensor_id;sensor_type;location;lat;lon;timestamp;temperature;humidity
5868;DHT22;2960;49.142;7.768;2023-04-03T00:02:15;7.80;59.20
5868;DHT22;2960;49.142;7.768;2023-04-03T00:04:43;7.80;58.80
5868;DHT22;2960;49.142;7.768;2023-04-03T00:07:12;7.70;58.50
5868;DHT22;2960;49.142;7.768;2023-04-03T00:09:40;7.70;58.20
5868;DHT22;2960;49.142;7.768;2023-04-03T00:12:07;7.60;58.10
5868;DHT22;2960;49.142;7.768;2023-04-03T00:14:36;7.50;58.10
5868;DHT22;2960;49.142;7.768;2023-04-03T00:17:03;7.50;58.20
5868;DHT22;2960;49.142;7.768;2023-04-03T00:19:30;7.50;58.20
5868;DHT22;2960;49.142;7.768;2023-04-03T00:22:00;7.50;58.30
5868;DHT22;2960;49.142;7.768;2023-04-03T00:24:27;7.50;58.30
5868;DHT22;2960;49.142;7.768;2023-04-03T00:26:54;7.50;58.40
5868;DHT22;2960;49.142;7.768;2023-04-03T00:29:21;7.40;58.20
5868;DHT22;2960;49.142;7.768;2023-04-03T00:31:50;7.40;58.30
5868;DHT22;2960;49.142;7.768;2023-04-03T00:34:17;7.40;58.30
5868;DHT22;2960;49.142;7.768;2023-04-03T00:36:45;7.40;58.40
5868;DHT22;2960;49.142;7.768;2023-04-03T00:39:12;7.40;58.50
5868;DHT22;2960;49.142;7.768;2023-04-03T00:41:39;7.40;58.50
5868;DHT22;2960;49.142;7.768;2023-04-03T00:44:22;7.40;58.60
5868;DHT22;2960;49.142;7.768;2023-04-03T00:47:29;7.30;58.60
5868;DHT22;2960;49.142;7.768;2023-04-03T00:49:57;7.30;58.60
5868;DHT22;2960;49.142;7.768;2023-04-03T00:52:28;7.30;58.60
5868;DHT22;2960;49.142;7.768;2023-04-03T00:55:01;7.20;58.70
5868;DHT22;2960;49.142;7.768;2023-04-03T00:57:31;7.20;58.80
5868;DHT22;2960;49.142;7.768;2023-04-03T01:00:02;7.20;58.80
5868;DHT22;2960;49.142;7.768;2023-04-03T01:02:33;7.10;58.90
5868;DHT22;2960;49.142;7.768;2023-04-03T01:05:00;7.10;58.90
5868;DHT22;2960;49.142;7.768;2023-04-03T01:07:29;7.00;58.90
5868;DHT22;2960;49.142;7.768;2023-04-03T01:10:00;7.00;58.90
5868;DHT22;2960;49.142;7.768;2023-04-03T01:12:33;6.90;59.60
5868;DHT22;2960;49.142;7.768;2023-04-03T01:15:04;6.90;59.10
5868;DHT22;2960;49.142;7.768;2023-04-03T01:17:36;6.80;59.10
5868;DHT22;2960;49.142;7.768;2023-04-03T01:20:43;6.80;59.20
5868;DHT22;2960;49.142;7.768;2023-04-03T01:23:36;6.70;59.20
5868;DHT22;2960;49.142;7.768;2023-04-03T01:26:09;6.60;59.30
5868;DHT22;2960;49.142;7.768;2023-04-03T01:28:37;6.60;59.30
5868;DHT22;2960;49.142;7.768;2023-04-03T01:31:11;6.60;59.40
5868;DHT22;2960;49.142;7.768;2023-04-03T01:33:43;6.50;59.40
5868;DHT22;2960;49.142;7.768;2023-04-03T01:36:16;6.40;59.40
5868;DHT22;2960;49.142;7.768;2023-04-03T01:38:44;6.40;59.60
5868;DHT22;2960;49.142;7.768;2023-04-03T01:41:12;6.30;59.60
5868;DHT22;2960;49.142;7.768;2023-04-03T01:43:39;6.30;59.70
5868;DHT22;2960;49.142;7.768;2023-04-03T01:46:06;6.30;59.80
5868;DHT22;2960;49.142;7.768;2023-04-03T01:48:33;6.20;59.80
5868;DHT22;2960;49.142;7.768;2023-04-03T01:51:02;6.20;59.80
5868;DHT22;2960;49.142;7.768;2023-04-03T01:53:29;6.10;59.70
5868;DHT22;2960;49.142;7.768;2023-04-03T01:55:56;6.10;59.70
5868;DHT22;2960;49.142;7.768;2023-04-03T01:58:23;6.10;59.80
5868;DHT22;2960;49.142;7.768;2023-04-03T02:00:51;6.00;59.80
5868;DHT22;2960;49.142;7.768;2023-04-03T02:03:18;6.00;59.90
5868;DHT22;2960;49.142;7.768;2023-04-03T02:05:45;5.90;59.80
5868;DHT22;2960;49.142;7.768;2023-04-03T02:08:13;5.90;60.00
5868;DHT22;2960;49.142;7.768;2023-04-03T02:10:43;5.80;60.00
5868;DHT22;2960;49.142;7.768;2023-04-03T02:13:11;5.80;60.00
5868;DHT22;2960;49.142;7.768;2023-04-03T02:15:38;5.80;60.10
5868;DHT22;2960;49.142;7.768;2023-04-03T02:18:06;5.70;60.90
5868;DHT22;2960;49.142;7.768;2023-04-03T02:20:33;5.70;60.10
5868;DHT22;2960;49.142;7.768;2023-04-03T02:23:00;5.60;60.10
5868;DHT22;2960;49.142;7.768;2023-04-03T02:25:30;5.60;60.10
5868;DHT22;2960;49.142;7.768;2023-04-03T02:27:57;5.50;60.20
5868;DHT22;2960;49.142;7.768;2023-04-03T02:30:25;5.50;60.20
5868;DHT22;2960;49.142;7.768;2023-04-03T02:32:53;5.40;60.30
5868;DHT22;2960;49.142;7.768;2023-04-03T02:35:21;5.40;60.40
5868;DHT22;2960;49.142;7.768;2023-04-03T02:37:48;5.40;60.60
5868;DHT22;2960;49.142;7.768;2023-04-03T02:40:16;5.30;60.50
5868;DHT22;2960;49.142;7.768;2023-04-03T02:42:45;5.30;60.50
5868;DHT22;2960;49.142;7.768;2023-04-03T02:45:12;5.20;60.50
5868;DHT22;2960;49.142;7.768;2023-04-03T02:47:39;5.20;60.60
5868;DHT22;2960;49.142;7.768;2023-04-03T02:50:07;5.20;60.70
5868;DHT22;2960;49.142;7.768;2023-04-03T02:52:34;5.10;60.70
5868;DHT22;2960;49.142;7.768;2023-04-03T02:55:01;5.10;60.70
5868;DHT22;2960;49.142;7.768;2023-04-03T02:57:29;5.10;60.80
5868;DHT22;2960;49.142;7.768;2023-04-03T02:59:57;5.00;60.70
5868;DHT22;2960;49.142;7.768;2023-04-03T03:02:24;5.00;60.70
5868;DHT22;2960;49.142;7.768;2023-04-03T03:04:51;5.00;60.70
5868;DHT22;2960;49.142;7.768;2023-04-03T03:07:18;4.90;60.60
5868;DHT22;2960;49.142;7.768;2023-04-03T03:09:46;4.90;60.70
5868;DHT22;2960;49.142;7.768;2023-04-03T03:12:13;4.90;60.80
5868;DHT22;2960;49.142;7.768;2023-04-03T03:14:40;4.90;60.80
5868;DHT22;2960;49.142;7.768;2023-04-03T03:17:12;4.80;60.70
5868;DHT22;2960;49.142;7.768;2023-04-03T03:19:39;4.80;60.90
5868;DHT22;2960;49.142;7.768;2023-04-03T03:22:06;4.70;60.80
5868;DHT22;2960;49.142;7.768;2023-04-03T03:24:33;4.70;60.90
5868;DHT22;2960;49.142;7.768;2023-04-03T03:27:00;4.70;60.90
5868;DHT22;2960;49.142;7.768;2023-04-03T03:29:28;4.60;60.90
5868;DHT22;2960;49.142;7.768;2023-04-03T03:31:55;4.50;61.00
5868;DHT22;2960;49.142;7.768;2023-04-03T03:34:23;4.50;61.20
5868;DHT22;2960;49.142;7.768;2023-04-03T03:36:50;4.40;61.10
5868;DHT22;2960;49.142;7.768;2023-04-03T03:39:17;4.40;61.30
5868;DHT22;2960;49.142;7.768;2023-04-03T03:41:45;4.30;61.30
5868;DHT22;2960;49.142;7.768;2023-04-03T03:44:12;4.30;61.40
5868;DHT22;2960;49.142;7.768;2023-04-03T03:46:40;4.30;61.40
5868;DHT22;2960;49.142;7.768;2023-04-03T03:49:07;4.30;61.40
5868;DHT22;2960;49.142;7.768;2023-04-03T03:51:36;4.30;61.40
5868;DHT22;2960;49.142;7.768;2023-04-03T03:54:04;4.30;61.40
5868;DHT22;2960;49.142;7.768;2023-04-03T03:56:31;4.20;61.40
5868;DHT22;2960;49.142;7.768;2023-04-03T03:58:59;4.20;61.50
5868;DHT22;2960;49.142;7.768;2023-04-03T04:01:26;4.20;61.50
5868;DHT22;2960;49.142;7.768;2023-04-03T04:03:53;4.20;61.50
5868;DHT22;2960;49.142;7.768;2023-04-03T04:06:21;4.10;61.50
5868;DHT22;2960;49.142;7.768;2023-04-03T04:08:50;4.10;61.50
5868;DHT22;2960;49.142;7.768;2023-04-03T04:11:17;4.10;61.50
5868;DHT22;2960;49.142;7.768;2023-04-03T04:13:44;4.10;61.50
5868;DHT22;2960;49.142;7.768;2023-04-03T04:16:11;4.10;61.50
5868;DHT22;2960;49.142;7.768;2023-04-03T04:18:38;4.10;61.60
5868;DHT22;2960;49.142;7.768;2023-04-03T04:21:05;4.10;61.60
5868;DHT22;2960;49.142;7.768;2023-04-03T04:23:32;4.00;61.50
5868;DHT22;2960;49.142;7.768;2023-04-03T04:26:01;4.00;61.60
5868;DHT22;2960;49.142;7.768;2023-04-03T04:28:29;4.00;61.60
5868;DHT22;2960;49.142;7.768;2023-04-03T04:30:56;4.00;61.70
5868;DHT22;2960;49.142;7.768;2023-04-03T04:33:23;3.90;61.70
5868;DHT22;2960;49.142;7.768;2023-04-03T04:35:50;3.90;61.80
5868;DHT22;2960;49.142;7.768;2023-04-03T04:38:17;3.90;61.90
5868;DHT22;2960;49.142;7.768;2023-04-03T04:40:44;3.80;61.90
5868;DHT22;2960;49.142;7.768;2023-04-03T04:43:12;3.80;62.00
5868;DHT22;2960;49.142;7.768;2023-04-03T04:45:40;3.80;63.00
5868;DHT22;2960;49.142;7.768;2023-04-03T04:48:08;3.80;62.20
5868;DHT22;2960;49.142;7.768;2023-04-03T04:50:35;3.90;62.30
5868;DHT22;2960;49.142;7.768;2023-04-03T04:53:02;3.80;62.20
5868;DHT22;2960;49.142;7.768;2023-04-03T04:55:30;3.90;62.30
5868;DHT22;2960;49.142;7.768;2023-04-03T04:57:57;3.80;62.30
5868;DHT22;2960;49.142;7.768;2023-04-03T05:00:25;3.90;62.40
5868;DHT22;2960;49.142;7.768;2023-04-03T05:02:52;3.90;62.40
5868;DHT22;2960;49.142;7.768;2023-04-03T05:05:20;3.90;62.40
5868;DHT22;2960;49.142;7.768;2023-04-03T05:07:49;3.90;62.30
5868;DHT22;2960;49.142;7.768;2023-04-03T05:10:16;4.00;62.40
5868;DHT22;2960;49.142;7.768;2023-04-03T05:12:43;4.00;62.40
5868;DHT22;2960;49.142;7.768;2023-04-03T05:15:11;4.00;62.30
5868;DHT22;2960;49.142;7.768;2023-04-03T05:17:39;4.10;62.30
5868;DHT22;2960;49.142;7.768;2023-04-03T05:20:10;4.10;62.20
5868;DHT22;2960;49.142;7.768;2023-04-03T05:22:37;4.20;62.20
5868;DHT22;2960;49.142;7.768;2023-04-03T05:25:05;4.20;62.20
5868;DHT22;2960;49.142;7.768;2023-04-03T05:27:33;4.30;62.10
5868;DHT22;2960;49.142;7.768;2023-04-03T05:30:00;4.30;62.00
5868;DHT22;2960;49.142;7.768;2023-04-03T05:32:27;4.30;61.80
5868;DHT22;2960;49.142;7.768;2023-04-03T05:34:56;4.40;61.80
5868;DHT22;2960;49.142;7.768;2023-04-03T05:37:23;4.40;62.40
5868;DHT22;2960;49.142;7.768;2023-04-03T05:39:50;4.50;61.60
5868;DHT22;2960;49.142;7.768;2023-04-03T05:42:17;4.50;61.50
5868;DHT22;2960;49.142;7.768;2023-04-03T05:44:44;4.60;61.30
5868;DHT22;2960;49.142;7.768;2023-04-03T05:47:12;4.70;61.30
5868;DHT22;2960;49.142;7.768;2023-04-03T05:49:40;4.70;61.00
5868;DHT22;2960;49.142;7.768;2023-04-03T05:52:11;4.80;61.00
5868;DHT22;2960;49.142;7.768;2023-04-03T05:54:46;4.90;60.90
5868;DHT22;2960;49.142;7.768;2023-04-03T05:57:13;5.00;60.70
5868;DHT22;2960;49.142;7.768;2023-04-03T05:59:41;5.00;60.50
5868;DHT22;2960;49.142;7.768;2023-04-03T06:02:10;5.10;60.50
5868;DHT22;2960;49.142;7.768;2023-04-03T06:04:38;5.20;60.40
5868;DHT22;2960;49.142;7.768;2023-04-03T06:07:08;5.30;60.90
5868;DHT22;2960;49.142;7.768;2023-04-03T06:09:37;5.30;60.60
5868;DHT22;2960;49.142;7.768;2023-04-03T06:12:04;5.40;59.70
5868;DHT22;2960;49.142;7.768;2023-04-03T06:14:34;5.50;59.70
5868;DHT22;2960;49.142;7.768;2023-04-03T06:17:02;5.60;59.60
5868;DHT22;2960;49.142;7.768;2023-04-03T06:19:29;5.60;59.40
5868;DHT22;2960;49.142;7.768;2023-04-03T06:21:57;5.70;59.20
5868;DHT22;2960;49.142;7.768;2023-04-03T06:24:25;5.80;59.20
5868;DHT22;2960;49.142;7.768;2023-04-03T06:26:53;5.90;59.20
5868;DHT22;2960;49.142;7.768;2023-04-03T06:29:23;5.90;59.00
5868;DHT22;2960;49.142;7.768;2023-04-03T06:31:51;6.00;58.70
5868;DHT22;2960;49.142;7.768;2023-04-03T06:34:18;6.10;58.50
5868;DHT22;2960;49.142;7.768;2023-04-03T06:36:46;6.10;58.40
5868;DHT22;2960;49.142;7.768;2023-04-03T06:39:16;6.20;58.40
5868;DHT22;2960;49.142;7.768;2023-04-03T06:41:47;6.20;58.30
5868;DHT22;2960;49.142;7.768;2023-04-03T06:44:14;6.40;58.20
5868;DHT22;2960;49.142;7.768;2023-04-03T06:46:42;6.30;58.00
5868;DHT22;2960;49.142;7.768;2023-04-03T06:49:10;6.40;58.00
5868;DHT22;2960;49.142;7.768;2023-04-03T06:51:38;6.40;57.80
5868;DHT22;2960;49.142;7.768;2023-04-03T06:54:06;6.50;58.40
5868;DHT22;2960;49.142;7.768;2023-04-03T06:56:34;6.50;57.80
5868;DHT22;2960;49.142;7.768;2023-04-03T06:59:02;6.60;57.70
5868;DHT22;2960;49.142;7.768;2023-04-03T07:01:30;6.70;57.60
5868;DHT22;2960;49.142;7.768;2023-04-03T07:03:57;6.80;57.70
5868;DHT22;2960;49.142;7.768;2023-04-03T07:06:24;6.90;57.60
5868;DHT22;2960;49.142;7.768;2023-04-03T07:08:53;7.00;57.70
5868;DHT22;2960;49.142;7.768;2023-04-03T07:11:20;7.10;57.60
5868;DHT22;2960;49.142;7.768;2023-04-03T07:13:47;7.10;57.60
5868;DHT22;2960;49.142;7.768;2023-04-03T07:16:16;7.20;57.50
5868;DHT22;2960;49.142;7.768;2023-04-03T07:18:46;7.20;57.50
5868;DHT22;2960;49.142;7.768;2023-04-03T07:21:13;7.30;57.50
5868;DHT22;2960;49.142;7.768;2023-04-03T07:23:40;7.30;57.40
5868;DHT22;2960;49.142;7.768;2023-04-03T07:26:08;7.40;57.40
5868;DHT22;2960;49.142;7.768;2023-04-03T07:28:35;7.50;57.60
5868;DHT22;2960;49.142;7.768;2023-04-03T07:31:04;7.60;58.00
5868;DHT22;2960;49.142;7.768;2023-04-03T07:33:35;7.70;57.40
5868;DHT22;2960;49.142;7.768;2023-04-03T07:36:05;7.70;57.20
5868;DHT22;2960;49.142;7.768;2023-04-03T07:38:34;7.80;57.10
5868;DHT22;2960;49.142;7.768;2023-04-03T07:41:03;7.90;57.60
5868;DHT22;2960;49.142;7.768;2023-04-03T07:43:31;8.00;57.00
5868;DHT22;2960;49.142;7.768;2023-04-03T07:45:59;8.10;57.00
5868;DHT22;2960;49.142;7.768;2023-04-03T07:48:27;8.20;57.00
5868;DHT22;2960;49.142;7.768;2023-04-03T07:50:59;8.30;57.00
5868;DHT22;2960;49.142;7.768;2023-04-03T07:53:26;8.50;57.10
5868;DHT22;2960;49.142;7.768;2023-04-03T07:55:53;8.50;56.90
5868;DHT22;2960;49.142;7.768;2023-04-03T07:58:22;8.60;56.90
5868;DHT22;2960;49.142;7.768;2023-04-03T08:00:49;8.70;56.90
5868;DHT22;2960;49.142;7.768;2023-04-03T08:03:16;8.80;56.90
5868;DHT22;2960;49.142;7.768;2023-04-03T08:05:45;9.00;57.10
5868;DHT22;2960;49.142;7.768;2023-04-03T08:08:16;9.10;57.00
5868;DHT22;2960;49.142;7.768;2023-04-03T08:10:49;9.30;56.80
5868;DHT22;2960;49.142;7.768;2023-04-03T08:13:17;9.40;56.70
5868;DHT22;2960;49.142;7.768;2023-04-03T08:15:44;9.50;56.50
5868;DHT22;2960;49.142;7.768;2023-04-03T08:18:12;9.60;56.30
5868;DHT22;2960;49.142;7.768;2023-04-03T08:20:39;9.70;56.60
5868;DHT22;2960;49.142;7.768;2023-04-03T08:23:07;9.80;56.30
5868;DHT22;2960;49.142;7.768;2023-04-03T08:25:37;9.90;55.60
5868;DHT22;2960;49.142;7.768;2023-04-03T08:28:05;10.00;54.80
5868;DHT22;2960;49.142;7.768;2023-04-03T08:30:32;10.10;54.50
5868;DHT22;2960;49.142;7.768;2023-04-03T08:33:00;10.30;54.40
5868;DHT22;2960;49.142;7.768;2023-04-03T08:35:28;10.40;54.30
5868;DHT22;2960;49.142;7.768;2023-04-03T08:37:55;10.50;54.00
5868;DHT22;2960;49.142;7.768;2023-04-03T08:40:23;10.60;53.80
5868;DHT22;2960;49.142;7.768;2023-04-03T08:43:03;10.70;53.60
5868;DHT22;2960;49.142;7.768;2023-04-03T08:45:45;10.80;53.70
5868;DHT22;2960;49.142;7.768;2023-04-03T08:48:19;10.90;53.70
5868;DHT22;2960;49.142;7.768;2023-04-03T08:50:50;11.00;53.60
5868;DHT22;2960;49.142;7.768;2023-04-03T08:53:21;11.10;53.30
5868;DHT22;2960;49.142;7.768;2023-04-03T08:55:51;11.20;53.10
5868;DHT22;2960;49.142;7.768;2023-04-03T08:58:23;11.30;53.00
5868;DHT22;2960;49.142;7.768;2023-04-03T09:00:55;11.30;52.50
5868;DHT22;2960;49.142;7.768;2023-04-03T09:03:28;11.40;52.00
5868;DHT22;2960;49.142;7.768;2023-04-03T09:06:01;11.40;51.70
5868;DHT22;2960;49.142;7.768;2023-04-03T09:08:33;11.40;51.70
5868;DHT22;2960;49.142;7.768;2023-04-03T09:11:16;11.50;52.20
5868;DHT22;2960;49.142;7.768;2023-04-03T09:13:52;11.50;51.20
5868;DHT22;2960;49.142;7.768;2023-04-03T09:16:29;11.50;51.20
5868;DHT22;2960;49.142;7.768;2023-04-03T09:19:11;11.50;51.10
5868;DHT22;2960;49.142;7.768;2023-04-03T09:21:42;11.40;50.50
5868;DHT22;2960;49.142;7.768;2023-04-03T09:24:14;11.40;50.10
5868;DHT22;2960;49.142;7.768;2023-04-03T09:26:44;11.40;50.40
5868;DHT22;2960;49.142;7.768;2023-04-03T09:29:18;11.40;50.50
5868;DHT22;2960;49.142;7.768;2023-04-03T09:31:48;11.50;50.30
5868;DHT22;2960;49.142;7.768;2023-04-03T09:34:20;11.50;50.10
5868;DHT22;2960;49.142;7.768;2023-04-03T09:36:51;11.50;49.90
5868;DHT22;2960;49.142;7.768;2023-04-03T09:39:21;11.40;50.00
5868;DHT22;2960;49.142;7.768;2023-04-03T09:42:00;11.40;49.90
5868;DHT22;2960;49.142;7.768;2023-04-03T09:44:32;11.40;50.00
5868;DHT22;2960;49.142;7.768;2023-04-03T09:47:18;11.30;49.80
5868;DHT22;2960;49.142;7.768;2023-04-03T09:49:46;11.30;49.70
5868;DHT22;2960;49.142;7.768;2023-04-03T09:52:22;11.10;49.60
5868;DHT22;2960;49.142;7.768;2023-04-03T09:54:51;11.10;49.50
5868;DHT22;2960;49.142;7.768;2023-04-03T09:57:18;11.00;49.30
5868;DHT22;2960;49.142;7.768;2023-04-03T09:59:57;11.00;49.30
5868;DHT22;2960;49.142;7.768;2023-04-03T10:02:35;10.90;49.30
5868;DHT22;2960;49.142;7.768;2023-04-03T10:05:04;10.90;49.30
5868;DHT22;2960;49.142;7.768;2023-04-03T10:08:19;10.90;49.20
5868;DHT22;2960;49.142;7.768;2023-04-03T10:11:06;10.90;49.30
5868;DHT22;2960;49.142;7.768;2023-04-03T10:13:50;10.90;48.90
5868;DHT22;2960;49.142;7.768;2023-04-03T10:16:20;10.90;48.70
5868;DHT22;2960;49.142;7.768;2023-04-03T10:21:55;10.90;48.00
5868;DHT22;2960;49.142;7.768;2023-04-03T10:24:30;10.80;47.90
5868;DHT22;2960;49.142;7.768;2023-04-03T10:27:05;10.80;48.00
5868;DHT22;2960;49.142;7.768;2023-04-03T10:29:43;10.80;47.90
5868;DHT22;2960;49.142;7.768;2023-04-03T10:32:30;10.80;47.80
5868;DHT22;2960;49.142;7.768;2023-04-03T10:35:30;10.80;47.80
5868;DHT22;2960;49.142;7.768;2023-04-03T10:38:16;10.80;47.60
5868;DHT22;2960;49.142;7.768;2023-04-03T10:40:54;10.70;47.30
5868;DHT22;2960;49.142;7.768;2023-04-03T10:43:30;10.80;47.30
5868;DHT22;2960;49.142;7.768;2023-04-03T10:46:03;10.80;47.30
5868;DHT22;2960;49.142;7.768;2023-04-03T10:48:43;10.90;47.00
5868;DHT22;2960;49.142;7.768;2023-04-03T10:51:24;11.10;47.10
5868;DHT22;2960;49.142;7.768;2023-04-03T10:53:59;11.20;46.70
5868;DHT22;2960;49.142;7.768;2023-04-03T10:56:31;11.30;46.70
5868;DHT22;2960;49.142;7.768;2023-04-03T10:59:13;11.50;46.50
5868;DHT22;2960;49.142;7.768;2023-04-03T11:01:48;11.70;46.20
5868;DHT22;2960;49.142;7.768;2023-04-03T11:04:19;11.90;46.20
5868;DHT22;2960;49.142;7.768;2023-04-03T11:06:49;12.10;45.80
5868;DHT22;2960;49.142;7.768;2023-04-03T11:09:25;12.20;45.50
5868;DHT22;2960;49.142;7.768;2023-04-03T11:11:58;12.30;45.40
5868;DHT22;2960;49.142;7.768;2023-04-03T11:14:31;12.30;45.20
5868;DHT22;2960;49.142;7.768;2023-04-03T11:17:11;12.40;45.20
5868;DHT22;2960;49.142;7.768;2023-04-03T11:19:45;12.40;44.90
5868;DHT22;2960;49.142;7.768;2023-04-03T11:22:22;12.30;45.00
5868;DHT22;2960;49.142;7.768;2023-04-03T11:24:59;12.30;45.00
5868;DHT22;2960;49.142;7.768;2023-04-03T11:27:37;12.40;45.80
5868;DHT22;2960;49.142;7.768;2023-04-03T11:30:12;12.40;45.10
5868;DHT22;2960;49.142;7.768;2023-04-03T11:33:17;12.50;45.10
5868;DHT22;2960;49.142;7.768;2023-04-03T11:35:56;12.50;45.20
5868;DHT22;2960;49.142;7.768;2023-04-03T11:38:27;12.50;45.10
5868;DHT22;2960;49.142;7.768;2023-04-03T11:40:58;12.50;44.50
5868;DHT22;2960;49.142;7.768;2023-04-03T11:43:28;12.40;44.50
5868;DHT22;2960;49.142;7.768;2023-04-03T11:45:58;12.40;44.70
5868;DHT22;2960;49.142;7.768;2023-04-03T11:48:44;12.30;44.60
5868;DHT22;2960;49.142;7.768;2023-04-03T11:51:41;12.30;44.60
5868;DHT22;2960;49.142;7.768;2023-04-03T11:54:47;12.20;44.60
5868;DHT22;2960;49.142;7.768;2023-04-03T12:00:49;12.10;44.40
5868;DHT22;2960;49.142;7.768;2023-04-03T12:10:02;12.00;44.30
5868;DHT22;2960;49.142;7.768;2023-04-03T12:12:43;11.90;44.30
5868;DHT22;2960;49.142;7.768;2023-04-03T12:15:53;11.80;44.20
5868;DHT22;2960;49.142;7.768;2023-04-03T12:18:57;11.80;44.30
5868;DHT22;2960;49.142;7.768;2023-04-03T12:24:35;11.70;44.50
5868;DHT22;2960;49.142;7.768;2023-04-03T12:27:29;11.70;44.20
5868;DHT22;2960;49.142;7.768;2023-04-03T12:33:02;11.70;44.50
5868;DHT22;2960;49.142;7.768;2023-04-03T12:35:43;11.80;44.60
5868;DHT22;2960;49.142;7.768;2023-04-03T12:38:28;11.80;44.50
5868;DHT22;2960;49.142;7.768;2023-04-03T12:41:18;11.80;44.40
5868;DHT22;2960;49.142;7.768;2023-04-03T12:46:54;11.80;44.50
5868;DHT22;2960;49.142;7.768;2023-04-03T12:49:35;11.80;44.20
5868;DHT22;2960;49.142;7.768;2023-04-03T12:52:13;11.80;44.10
5868;DHT22;2960;49.142;7.768;2023-04-03T12:54:45;11.80;43.90
5868;DHT22;2960;49.142;7.768;2023-04-03T12:57:17;11.80;44.00
5868;DHT22;2960;49.142;7.768;2023-04-03T12:59:46;11.80;44.00
5868;DHT22;2960;49.142;7.768;2023-04-03T13:02:22;11.80;44.00
5868;DHT22;2960;49.142;7.768;2023-04-03T13:04:54;11.80;43.90
5868;DHT22;2960;49.142;7.768;2023-04-03T13:07:26;11.70;43.70
5868;DHT22;2960;49.142;7.768;2023-04-03T13:09:58;11.70;43.70
5868;DHT22;2960;49.142;7.768;2023-04-03T13:12:27;11.70;43.70
5868;DHT22;2960;49.142;7.768;2023-04-03T13:14:56;11.70;43.80
5868;DHT22;2960;49.142;7.768;2023-04-03T13:17:27;11.70;43.90
5868;DHT22;2960;49.142;7.768;2023-04-03T13:20:10;11.70;43.90
5868;DHT22;2960;49.142;7.768;2023-04-03T13:22:48;11.80;43.60
5868;DHT22;2960;49.142;7.768;2023-04-03T13:25:20;11.70;43.40
5868;DHT22;2960;49.142;7.768;2023-04-03T13:27:49;11.70;43.50
5868;DHT22;2960;49.142;7.768;2023-04-03T13:30:29;11.70;43.50
5868;DHT22;2960;49.142;7.768;2023-04-03T13:33:00;11.70;43.40
5868;DHT22;2960;49.142;7.768;2023-04-03T13:35:36;11.60;43.20
5868;DHT22;2960;49.142;7.768;2023-04-03T13:38:21;11.60;43.10
5868;DHT22;2960;49.142;7.768;2023-04-03T13:40:50;11.60;43.10
5868;DHT22;2960;49.142;7.768;2023-04-03T13:43:20;11.70;43.10
5868;DHT22;2960;49.142;7.768;2023-04-03T13:45:58;11.70;42.90
5868;DHT22;2960;49.142;7.768;2023-04-03T13:48:36;11.70;42.40
5868;DHT22;2960;49.142;7.768;2023-04-03T13:51:18;11.70;42.50
5868;DHT22;2960;49.142;7.768;2023-04-03T13:53:48;11.70;42.60
5868;DHT22;2960;49.142;7.768;2023-04-03T13:56:24;11.70;42.60
5868;DHT22;2960;49.142;7.768;2023-04-03T13:59:00;11.70;42.80
5868;DHT22;2960;49.142;7.768;2023-04-03T14:01:41;11.70;43.10
5868;DHT22;2960;49.142;7.768;2023-04-03T14:04:14;11.70;42.80
5868;DHT22;2960;49.142;7.768;2023-04-03T14:06:44;11.70;42.80
5868;DHT22;2960;49.142;7.768;2023-04-03T14:09:13;11.70;42.70
5868;DHT22;2960;49.142;7.768;2023-04-03T14:11:41;11.70;42.50
5868;DHT22;2960;49.142;7.768;2023-04-03T14:14:13;11.70;42.70
5868;DHT22;2960;49.142;7.768;2023-04-03T14:16:44;11.70;42.70
5868;DHT22;2960;49.142;7.768;2023-04-03T14:19:20;11.70;42.70
5868;DHT22;2960;49.142;7.768;2023-04-03T14:21:52;11.70;42.40
5868;DHT22;2960;49.142;7.768;2023-04-03T14:24:20;11.60;42.30
5868;DHT22;2960;49.142;7.768;2023-04-03T14:26:48;11.60;42.40
5868;DHT22;2960;49.142;7.768;2023-04-03T14:29:17;11.60;42.50
5868;DHT22;2960;49.142;7.768;2023-04-03T14:31:47;11.50;42.40
5868;DHT22;2960;49.142;7.768;2023-04-03T14:34:15;11.50;42.30
5868;DHT22;2960;49.142;7.768;2023-04-03T14:36:44;11.50;42.30
5868;DHT22;2960;49.142;7.768;2023-04-03T14:39:17;11.40;42.30
5868;DHT22;2960;49.142;7.768;2023-04-03T14:41:45;11.40;42.40
5868;DHT22;2960;49.142;7.768;2023-04-03T14:44:12;11.40;42.00
5868;DHT22;2960;49.142;7.768;2023-04-03T14:46:42;11.40;42.00
5868;DHT22;2960;49.142;7.768;2023-04-03T14:49:14;11.40;42.00
5868;DHT22;2960;49.142;7.768;2023-04-03T14:51:42;11.40;42.10
5868;DHT22;2960;49.142;7.768;2023-04-03T14:54:17;11.40;42.10
5868;DHT22;2960;49.142;7.768;2023-04-03T14:56:47;11.40;42.20
5868;DHT22;2960;49.142;7.768;2023-04-03T14:59:14;11.50;42.30
5868;DHT22;2960;49.142;7.768;2023-04-03T15:01:43;11.50;42.10
5868;DHT22;2960;49.142;7.768;2023-04-03T15:04:11;11.50;41.90
5868;DHT22;2960;49.142;7.768;2023-04-03T15:06:39;11.50;41.70
5868;DHT22;2960;49.142;7.768;2023-04-03T15:09:16;11.50;41.50
5868;DHT22;2960;49.142;7.768;2023-04-03T15:11:46;11.40;41.30
5868;DHT22;2960;49.142;7.768;2023-04-03T15:14:14;11.40;40.80
5868;DHT22;2960;49.142;7.768;2023-04-03T15:16:41;11.30;40.60
5868;DHT22;2960;49.142;7.768;2023-04-03T15:19:08;11.30;40.90
5868;DHT22;2960;49.142;7.768;2023-04-03T15:21:36;11.30;41.00
5868;DHT22;2960;49.142;7.768;2023-04-03T15:24:03;11.30;41.00
5868;DHT22;2960;49.142;7.768;2023-04-03T15:26:32;11.30;41.10
5868;DHT22;2960;49.142;7.768;2023-04-03T15:28:59;11.30;41.70
5868;DHT22;2960;49.142;7.768;2023-04-03T15:31:27;11.30;40.90
5868;DHT22;2960;49.142;7.768;2023-04-03T15:33:54;11.20;40.80
5868;DHT22;2960;49.142;7.768;2023-04-03T15:36:22;11.20;40.80
5868;DHT22;2960;49.142;7.768;2023-04-03T15:38:49;11.30;40.80
5868;DHT22;2960;49.142;7.768;2023-04-03T15:41:16;11.30;40.90
5868;DHT22;2960;49.142;7.768;2023-04-03T15:43:45;11.30;40.80
5868;DHT22;2960;49.142;7.768;2023-04-03T15:46:13;11.30;40.70
5868;DHT22;2960;49.142;7.768;2023-04-03T15:48:40;11.30;40.70
5868;DHT22;2960;49.142;7.768;2023-04-03T15:51:07;11.20;40.30
5868;DHT22;2960;49.142;7.768;2023-04-03T15:53:34;11.20;40.20
5868;DHT22;2960;49.142;7.768;2023-04-03T15:56:01;11.10;40.30
5868;DHT22;2960;49.142;7.768;2023-04-03T15:58:30;11.10;40.50
5868;DHT22;2960;49.142;7.768;2023-04-03T16:00:58;11.00;40.60
5868;DHT22;2960;49.142;7.768;2023-04-03T16:03:25;11.00;40.60
5868;DHT22;2960;49.142;7.768;2023-04-03T16:05:53;11.00;40.80
5868;DHT22;2960;49.142;7.768;2023-04-03T16:08:20;11.00;40.90
5868;DHT22;2960;49.142;7.768;2023-04-03T16:10:47;11.00;40.80
5868;DHT22;2960;49.142;7.768;2023-04-03T16:13:14;11.00;40.90
5868;DHT22;2960;49.142;7.768;2023-04-03T16:15:42;11.00;41.00
5868;DHT22;2960;49.142;7.768;2023-04-03T16:18:10;10.90;40.90
5868;DHT22;2960;49.142;7.768;2023-04-03T16:20:39;10.90;40.90
5868;DHT22;2960;49.142;7.768;2023-04-03T16:23:06;10.90;40.80
5868;DHT22;2960;49.142;7.768;2023-04-03T16:25:33;10.90;40.80
5868;DHT22;2960;49.142;7.768;2023-04-03T16:28:00;10.90;40.70
5868;DHT22;2960;49.142;7.768;2023-04-03T16:30:28;10.80;40.40
5868;DHT22;2960;49.142;7.768;2023-04-03T16:32:56;10.80;40.40
5868;DHT22;2960;49.142;7.768;2023-04-03T16:35:25;10.80;40.40
5868;DHT22;2960;49.142;7.768;2023-04-03T16:37:52;10.80;40.30
5868;DHT22;2960;49.142;7.768;2023-04-03T16:40:19;10.70;40.20
5868;DHT22;2960;49.142;7.768;2023-04-03T16:42:46;10.70;40.10
5868;DHT22;2960;49.142;7.768;2023-04-03T16:45:13;10.60;39.80
5868;DHT22;2960;49.142;7.768;2023-04-03T16:47:40;10.50;39.70
5868;DHT22;2960;49.142;7.768;2023-04-03T16:50:08;10.50;39.70
5868;DHT22;2960;49.142;7.768;2023-04-03T16:52:37;10.40;39.70
5868;DHT22;2960;49.142;7.768;2023-04-03T16:55:05;10.40;39.80
5868;DHT22;2960;49.142;7.768;2023-04-03T16:57:32;10.30;39.80